M I D A S
Marine Information and Data Acquisition System
Tripno 1773 of the Zeeleeuw from 2009-09-09 06:36:56 to 2009-09-09 15:09:02
Back to CruiseResearch ActivitiesStationsMapUnderway DataData graphs

EquipmentUnitsComment
TimeDGPSUTC
LatitudeDGPSDM.mWGS84
LongitudeDGPSDM.mWGS84
HeadingGyrodeg 
SOGDGPSknotsSpeed over ground
COGDGPSdegCourse over ground
DepthEcho soundermeters200 kHz
Missing or incorrect values are displayed as -999
Navigation data collected by the RV Zeeleeuw from 2009-09-09 06:28:54 to 2009-09-09 15:19:10
                                                                                    Next 1000 lines
Time Latitude Longitude Heading SOG COG Depth
2009-09-09 06:29:04 51°13.662 2°55.956 110.7 0.9 279 8.5
2009-09-09 06:29:09 51°13.662 2°55.953 110.2 1.4 283 8.5
2009-09-09 06:29:14 51°13.663 2°55.949 110.2 1.9 286 8.5
2009-09-09 06:29:19 51°13.664 2°55.944 110.9 2.3 286 8.5
2009-09-09 06:29:24 51°13.665 2°55.939 111.9 2.6 289 5.4
2009-09-09 06:29:30 51°13.666 2°55.932 113.5 2.9 288 -999
2009-09-09 06:29:36 51°13.668 2°55.924 114.5 3.2 291 -999
2009-09-09 06:29:42 51°13.671 2°55.915 115.3 3.5 293 -999
2009-09-09 06:29:47 51°13.672 2°55.908 115.7 3.7 292 -999
2009-09-09 06:29:53 51°13.675 2°55.899 116 3.9 295 -999
2009-09-09 06:29:58 51°13.678 2°55.89 116.2 4 294 -999
2009-09-09 06:30:03 51°13.68 2°55.882 117.5 4.2 295 -999
2009-09-09 06:30:08 51°13.683 2°55.873 118.4 4.3 296 -999
2009-09-09 06:30:13 51°13.686 2°55.865 118.7 4.2 297 -999
2009-09-09 06:30:18 51°13.688 2°55.857 118.8 4.1 297 -999
2009-09-09 06:30:22 51°13.69 2°55.851 119.8 4.1 297 -999
2009-09-09 06:30:28 51°13.693 2°55.841 121 4.1 298 -999
2009-09-09 06:30:33 51°13.696 2°55.833 122.6 4 299 -999
2009-09-09 06:30:38 51°13.698 2°55.826 124.2 3.9 301 -999
2009-09-09 06:30:43 51°13.701 2°55.819 125.9 3.9 301 -999
2009-09-09 06:30:48 51°13.705 2°55.811 127.4 4 305 -999
2009-09-09 06:30:53 51°13.708 2°55.804 128.9 4.1 306 -999
2009-09-09 06:30:58 51°13.711 2°55.797 130.6 4.1 308 -999
2009-09-09 06:31:03 51°13.715 2°55.79 132.4 3.9 309 -999
2009-09-09 06:31:08 51°13.718 2°55.784 134.5 3.7 311 -999
2009-09-09 06:31:13 51°13.722 2°55.779 136.7 3.4 315 -999
2009-09-09 06:31:18 51°13.725 2°55.774 139.4 2.9 317 -999
2009-09-09 06:31:23 51°13.726 2°55.77 141.9 2.2 314 -999
2009-09-09 06:31:27 51°13.728 2°55.768 142.7 1.9 317 13.1
2009-09-09 06:31:32 51°13.73 2°55.765 141.8 2 315 12.7
2009-09-09 06:31:37 51°13.732 2°55.762 141.3 2.1 316 12.5
2009-09-09 06:31:42 51°13.734 2°55.759 141 2.2 318 12.6
2009-09-09 06:31:46 51°13.736 2°55.755 141 2.5 315 12.6
2009-09-09 06:31:51 51°13.739 2°55.751 141.4 2.8 318 12.3
2009-09-09 06:31:56 51°13.742 2°55.747 141.9 3 317 12.4
2009-09-09 06:32:02 51°13.746 2°55.741 142.1 3.2 319 -999
2009-09-09 06:32:07 51°13.749 2°55.736 142.1 3.4 317 -999
2009-09-09 06:32:13 51°13.754 2°55.731 142.2 3.5 319 -999
2009-09-09 06:32:18 51°13.758 2°55.725 142.3 3.6 319 -999
2009-09-09 06:32:23 51°13.762 2°55.72 142.6 3.7 320 -999
2009-09-09 06:32:28 51°13.766 2°55.715 142.9 3.8 320 -999
2009-09-09 06:32:33 51°13.77 2°55.709 143.1 3.9 320 -999
2009-09-09 06:32:38 51°13.774 2°55.704 143.1 3.9 320 -999
2009-09-09 06:32:42 51°13.777 2°55.699 143.1 3.9 320 -999
2009-09-09 06:32:48 51°13.782 2°55.693 143 4 320 -999
2009-09-09 06:32:53 51°13.786 2°55.687 143.4 4 320 -999
2009-09-09 06:32:58 51°13.791 2°55.681 144.2 4.1 321 -999
2009-09-09 06:33:03 51°13.796 2°55.676 145.1 4.2 322 -999
2009-09-09 06:33:08 51°13.8 2°55.67 146.3 4.2 322 -999
2009-09-09 06:33:13 51°13.805 2°55.664 147.8 4.3 324 -999
2009-09-09 06:33:18 51°13.81 2°55.659 149.2 4.3 325 -999
2009-09-09 06:33:23 51°13.815 2°55.654 151 4.3 326 -999
2009-09-09 06:33:28 51°13.82 2°55.649 153 4.3 328 -999
2009-09-09 06:33:33 51°13.825 2°55.644 155.4 4.3 331 -999
2009-09-09 06:33:38 51°13.83 2°55.64 157.8 4.3 333 -999
2009-09-09 06:33:43 51°13.836 2°55.636 160.7 4.3 336 -999
2009-09-09 06:33:48 51°13.841 2°55.633 163.8 4.2 339 -999
2009-09-09 06:33:53 51°13.847 2°55.631 167.1 4.2 343 -999
2009-09-09 06:33:58 51°13.852 2°55.628 170.4 3.9 345 -999
2009-09-09 06:34:03 51°13.857 2°55.626 173.9 3.7 349 -999
2009-09-09 06:34:08 51°13.862 2°55.625 177.3 3.6 351 -999
2009-09-09 06:34:13 51°13.867 2°55.624 180.4 3.4 354 -999
2009-09-09 06:34:18 51°13.872 2°55.624 183.5 3.3 358 -999
2009-09-09 06:34:23 51°13.876 2°55.624 186.6 3.1 -999 -999
2009-09-09 06:34:28 51°13.88 2°55.624 189.8 2.9 3 -999
2009-09-09 06:34:33 51°13.884 2°55.625 192.8 2.9 6 -999
2009-09-09 06:34:38 51°13.888 2°55.625 195.6 2.7 7 -999
2009-09-09 06:34:43 51°13.891 2°55.626 198.3 2.6 11 -999
2009-09-09 06:34:48 51°13.895 2°55.628 201.1 2.4 14 -999
2009-09-09 06:34:53 51°13.898 2°55.629 203.7 2.3 15 -999
2009-09-09 06:34:58 51°13.901 2°55.631 205.8 2.2 17 5.3
2009-09-09 06:35:02 51°13.903 2°55.632 207.4 2 18 -999
2009-09-09 06:35:08 51°13.905 2°55.633 209.1 1.7 18 11.3
2009-09-09 06:35:12 51°13.907 2°55.634 210.6 1.3 18 11.5
2009-09-09 06:35:17 51°13.908 2°55.635 212.3 0.8 10 11.5
2009-09-09 06:35:22 51°13.909 2°55.635 214.6 0.5 353 11.6
2009-09-09 06:35:26 51°13.909 2°55.635 219 0.4 290 11.6
2009-09-09 06:35:32 51°13.909 2°55.633 222.3 0.6 255 11.3
2009-09-09 06:35:36 51°13.909 2°55.631 228.6 1 245 11.3
2009-09-09 06:35:41 51°13.908 2°55.629 234.1 1.1 245 11.4
2009-09-09 06:35:46 51°13.908 2°55.627 238.8 1 257 11.5
2009-09-09 06:35:50 51°13.908 2°55.625 244 0.8 252 11.5
2009-09-09 06:35:56 51°13.908 2°55.624 247.6 0.5 258 11.5
2009-09-09 06:36:00 51°13.907 2°55.624 250.7 0.2 186 11.4
2009-09-09 06:36:05 51°13.908 2°55.625 253.7 0.4 75 11.4
2009-09-09 06:36:10 51°13.908 2°55.626 256.5 0.5 88 11.3
2009-09-09 06:36:14 51°13.908 2°55.626 259.2 0.6 86 11.4
2009-09-09 06:36:19 51°13.907 2°55.628 260.9 0.9 102 11.5
2009-09-09 06:36:24 51°13.907 2°55.631 262.7 1.1 89 11.6
2009-09-09 06:36:29 51°13.907 2°55.633 263.7 1.1 99 11.6
2009-09-09 06:36:34 51°13.907 2°55.635 264.7 1 86 11.6
2009-09-09 06:36:39 51°13.907 2°55.637 264.7 0.3 121 11.5
2009-09-09 06:36:44 51°13.906 2°55.635 264.9 0.7 247 11.5
2009-09-09 06:36:49 51°13.906 2°55.632 268.1 1.4 272 11.5
2009-09-09 06:36:54 51°13.906 2°55.628 273.9 2 268 11.5
2009-09-09 06:36:59 51°13.907 2°55.623 279.4 2.6 287 11.5
2009-09-09 06:37:05 51°13.909 2°55.616 289.1 2.9 293 11.4
2009-09-09 06:37:09 51°13.911 2°55.611 295.5 3.2 301 11.8
2009-09-09 06:37:14 51°13.913 2°55.605 303.3 3.4 305 11.7
2009-09-09 06:37:19 51°13.916 2°55.599 310.9 3.6 314 11.8
2009-09-09 06:37:25 51°13.921 2°55.593 318.2 3.5 320 11.9
2009-09-09 06:37:29 51°13.924 2°55.589 325.8 4.1 324 11.9
2009-09-09 06:37:34 51°13.929 2°55.582 328.3 4.7 324 11.9
2009-09-09 06:37:39 51°13.935 2°55.576 330.2 5.3 327 11.8
2009-09-09 06:37:44 51°13.942 2°55.569 330.6 5.9 327 11.7
2009-09-09 06:37:49 51°13.95 2°55.562 331.1 6.4 330 11.7
2009-09-09 06:37:54 51°13.958 2°55.554 331.3 6.7 328 11.9
2009-09-09 06:37:59 51°13.966 2°55.547 332.2 7 331 11.8
2009-09-09 06:38:04 51°13.974 2°55.539 332.9 7.3 330 12
2009-09-09 06:38:09 51°13.983 2°55.53 333 7.5 331 12
2009-09-09 06:38:14 51°13.993 2°55.522 333 7.7 331 12.1
2009-09-09 06:38:19 51°14.002 2°55.512 332.6 7.9 330 12
2009-09-09 06:38:25 51°14.013 2°55.502 333.1 7.9 331 11.9
2009-09-09 06:38:29 51°14.021 2°55.495 333.5 8.1 330 12.1
2009-09-09 06:38:34 51°14.031 2°55.486 333.4 8.1 331 11.7
2009-09-09 06:38:39 51°14.041 2°55.477 333.6 8.2 330 11.5
2009-09-09 06:38:45 51°14.052 2°55.467 333.7 8.2 331 11.4
2009-09-09 06:38:49 51°14.061 2°55.459 334 8.3 330 11.5
2009-09-09 06:38:54 51°14.07 2°55.45 334 8.2 330 11.4
2009-09-09 06:38:58 51°14.078 2°55.443 334 8.3 331 10.7
2009-09-09 06:39:04 51°14.091 2°55.433 334 8.4 331 11
2009-09-09 06:39:09 51°14.101 2°55.424 335 8.4 332 11.3
2009-09-09 06:39:14 51°14.111 2°55.415 335.1 8.5 332 11.4
2009-09-09 06:39:19 51°14.121 2°55.406 334.1 8.6 331 12
2009-09-09 06:39:25 51°14.134 2°55.395 334.2 8.6 332 12
2009-09-09 06:39:29 51°14.142 2°55.387 334.5 8.6 330 12
2009-09-09 06:39:34 51°14.153 2°55.378 334 8.6 329 12.2
2009-09-09 06:39:39 51°14.163 2°55.368 332.7 8.6 328 12
2009-09-09 06:39:44 51°14.172 2°55.357 330.6 8.6 326 12
2009-09-09 06:39:49 51°14.182 2°55.346 328.2 8.6 324 11.5
2009-09-09 06:39:54 51°14.192 2°55.335 327.5 8.6 325 11.3
2009-09-09 06:39:59 51°14.202 2°55.324 327.7 8.6 323 11.7
2009-09-09 06:40:05 51°14.212 2°55.31 326.8 8.5 320 11.6
2009-09-09 06:40:10 51°14.221 2°55.297 324.5 8.4 319 11.5
2009-09-09 06:40:14 51°14.228 2°55.286 322 8.5 315 11.9
2009-09-09 06:40:19 51°14.236 2°55.273 319.7 8.5 315 11.8
2009-09-09 06:40:24 51°14.244 2°55.26 318.7 8.6 313 11.9
2009-09-09 06:40:29 51°14.252 2°55.245 317 8.7 312 11.3
2009-09-09 06:40:34 51°14.26 2°55.231 315.1 8.9 310 11.2
2009-09-09 06:40:39 51°14.268 2°55.215 314.1 8.9 310 11.1
2009-09-09 06:40:44 51°14.276 2°55.2 313.9 9 310 11
2009-09-09 06:40:49 51°14.284 2°55.185 313.6 9 309 10.5
2009-09-09 06:40:54 51°14.292 2°55.17 313.1 9 309 10.4
2009-09-09 06:40:59 51°14.3 2°55.154 312.6 9.1 308 10.4
2009-09-09 06:41:04 51°14.307 2°55.138 311.8 9.1 308 10.8
2009-09-09 06:41:09 51°14.315 2°55.122 311.9 9.1 308 11
2009-09-09 06:41:14 51°14.322 2°55.105 311.4 9.2 306 11.4
2009-09-09 06:41:19 51°14.329 2°55.088 309.6 9.3 304 11.5
2009-09-09 06:41:25 51°14.338 2°55.067 307.3 9.4 301 11.2
2009-09-09 06:41:29 51°14.343 2°55.052 305.6 9.6 300 11.1
2009-09-09 06:41:34 51°14.35 2°55.034 304.9 9.6 301 10.3
2009-09-09 06:41:39 51°14.356 2°55.016 304.5 9.7 299 9.8
2009-09-09 06:41:45 51°14.364 2°54.993 303.5 9.8 299 9.8
2009-09-09 06:41:49 51°14.37 2°54.977 303 9.9 299 9.8
2009-09-09 06:41:54 51°14.376 2°54.957 302.6 10.1 298 9.9
2009-09-09 06:41:59 51°14.382 2°54.938 302 10.2 297 10
2009-09-09 06:42:04 51°14.388 2°54.917 301 10.2 293 10
2009-09-09 06:42:09 51°14.393 2°54.895 299 10.4 289 10.4
2009-09-09 06:42:14 51°14.397 2°54.873 295.4 10.5 283 10.2
2009-09-09 06:42:19 51°14.399 2°54.849 289.9 10.8 278 10.3
2009-09-09 06:42:25 51°14.401 2°54.82 286 11 276 10.4
2009-09-09 06:42:30 51°14.402 2°54.795 283.5 11.2 274 10.5
2009-09-09 06:42:34 51°14.403 2°54.776 282 11.3 274 10.3
2009-09-09 06:42:39 51°14.403 2°54.75 279.8 11.3 269 10.4
2009-09-09 06:42:44 51°14.402 2°54.725 275.6 11.5 264 10.5
2009-09-09 06:42:49 51°14.4 2°54.7 270.3 11.5 261 10.5
2009-09-09 06:42:54 51°14.396 2°54.675 265.8 11.6 257 10.4
2009-09-09 06:42:58 51°14.392 2°54.656 261.7 11.8 255 10.4
2009-09-09 06:43:04 51°14.386 2°54.626 258.3 11.8 251 10.8
2009-09-09 06:43:09 51°14.381 2°54.602 256 11.7 249 10.8
2009-09-09 06:43:14 51°14.375 2°54.578 253.1 11.7 249 10.5
2009-09-09 06:43:19 51°14.369 2°54.553 251.9 11.8 247 10
2009-09-09 06:43:25 51°14.361 2°54.524 249.9 12 247 9.9
2009-09-09 06:43:29 51°14.357 2°54.504 252.5 11.9 252 9.9
2009-09-09 06:43:34 51°14.351 2°54.48 252.7 12 246 9.9
2009-09-09 06:43:39 51°14.345 2°54.455 252.5 11.9 253 9.7
2009-09-09 06:43:45 51°14.338 2°54.425 254.4 12 248 9.5
2009-09-09 06:43:49 51°14.333 2°54.406 251.3 11.9 248 9.7
2009-09-09 06:43:54 51°14.329 2°54.381 253.5 11.9 255 9.8
2009-09-09 06:43:59 51°14.321 2°54.356 252.7 12.1 246 9.4
2009-09-09 06:44:05 51°14.315 2°54.327 251.4 11.9 251 9.7
2009-09-09 06:44:09 51°14.31 2°54.308 252.6 12 244 9.6
2009-09-09 06:44:14 51°14.303 2°54.283 250.4 11.8 252 9.5
2009-09-09 06:44:19 51°14.298 2°54.259 252.8 11.8 246 9.6
2009-09-09 06:44:24 51°14.29 2°54.235 249 12 245 9.8
2009-09-09 06:44:29 51°14.285 2°54.21 250.4 11.9 252 9.8
2009-09-09 06:44:34 51°14.278 2°54.187 251.5 12 244 9.6
2009-09-09 06:44:39 51°14.272 2°54.162 250.1 11.9 248 9.7
2009-09-09 06:44:44 51°14.266 2°54.138 250.6 11.9 247 9.5
2009-09-09 06:44:49 51°14.259 2°54.114 249.5 11.7 249 9.6
2009-09-09 06:44:54 51°14.253 2°54.09 251.7 11.8 245 9.7
2009-09-09 06:44:59 51°14.247 2°54.066 249.4 11.8 249 9.4
2009-09-09 06:45:04 51°14.241 2°54.041 251.4 12 248 9.4
2009-09-09 06:45:09 51°14.234 2°54.017 250.5 12 248 9.4
2009-09-09 06:45:14 51°14.229 2°53.992 251.5 11.9 248 9.2
2009-09-09 06:45:19 51°14.222 2°53.968 249.6 12 247 9.3
2009-09-09 06:45:25 51°14.215 2°53.938 251.2 12 251 9.3
2009-09-09 06:45:29 51°14.21 2°53.919 251.4 12 246 9.7
2009-09-09 06:45:34 51°14.204 2°53.894 250.6 12 249 9.7
2009-09-09 06:45:39 51°14.197 2°53.869 250.8 12 248 9.5
2009-09-09 06:45:45 51°14.19 2°53.84 250.3 12.1 247 9.6
2009-09-09 06:45:49 51°14.184 2°53.82 249.9 12.1 248 9.7
2009-09-09 06:45:54 51°14.178 2°53.795 250 12 247 9.8
2009-09-09 06:45:58 51°14.173 2°53.775 250.8 12.1 247 9.8
2009-09-09 06:46:04 51°14.165 2°53.745 250.1 12.2 247 9.8
2009-09-09 06:46:09 51°14.159 2°53.721 249.7 12.1 247 9.8
2009-09-09 06:46:14 51°14.152 2°53.696 250.4 12.1 247 9.9
2009-09-09 06:46:19 51°14.146 2°53.672 249.8 12.1 248 9.9
2009-09-09 06:46:25 51°14.138 2°53.643 249.6 12 246 9.9
2009-09-09 06:46:29 51°14.133 2°53.623 249.9 11.9 248 9.9
2009-09-09 06:46:34 51°14.125 2°53.599 248.3 12 243 10
2009-09-09 06:46:39 51°14.118 2°53.576 245 11.9 245 9.8
2009-09-09 06:46:44 51°14.11 2°53.552 245.9 11.9 243 9.7
2009-09-09 06:46:49 51°14.102 2°53.529 244.1 11.9 241 9.8
2009-09-09 06:46:54 51°14.094 2°53.507 243 11.9 241 9.8
2009-09-09 06:46:59 51°14.086 2°53.484 241.6 12 240 9.6
2009-09-09 06:47:04 51°14.077 2°53.461 241.1 12 240 9.9
2009-09-09 06:47:09 51°14.069 2°53.439 242.4 11.9 237 10
2009-09-09 06:47:14 51°14.06 2°53.417 240.3 11.9 238 9.8
2009-09-09 06:47:19 51°14.051 2°53.394 238.9 12 236 10
2009-09-09 06:47:25 51°14.042 2°53.367 240.7 11.9 241 9.9
2009-09-09 06:47:29 51°14.034 2°53.35 238.9 11.8 234 9.9
2009-09-09 06:47:34 51°14.025 2°53.328 237.6 11.9 237 10
2009-09-09 06:47:39 51°14.016 2°53.305 239 12 237 10.1
2009-09-09 06:47:44 51°14.007 2°53.283 238.7 11.8 237 10.3
2009-09-09 06:47:49 51°13.998 2°53.262 237.7 12 234 10.1
2009-09-09 06:47:54 51°13.988 2°53.24 237.3 11.9 237 10.4
2009-09-09 06:47:59 51°13.98 2°53.218 240.5 11.9 234 10.1
2009-09-09 06:48:04 51°13.97 2°53.197 236 11.8 236 10.2
2009-09-09 06:48:09 51°13.963 2°53.173 238.6 11.7 240 10.1
2009-09-09 06:48:14 51°13.953 2°53.153 237.9 11.8 233 10.2
2009-09-09 06:48:19 51°13.943 2°53.131 237.2 11.9 236 10.3
2009-09-09 06:48:25 51°13.933 2°53.105 238.9 11.7 237 10.3
2009-09-09 06:48:29 51°13.925 2°53.088 236.7 11.7 237 10.1
2009-09-09 06:48:34 51°13.917 2°53.065 238.5 11.9 238 10.2
2009-09-09 06:48:39 51°13.908 2°53.043 240.7 11.8 242 10.1
2009-09-09 06:48:45 51°13.898 2°53.017 240.2 11.9 235 10.3
2009-09-09 06:48:49 51°13.892 2°52.998 241.3 11.8 244 9.9
2009-09-09 06:48:54 51°13.883 2°52.976 241.6 11.9 238 10.3
2009-09-09 06:48:58 51°13.877 2°52.957 243.4 11.9 243 10.4
2009-09-09 06:49:04 51°13.867 2°52.93 242.9 11.8 240 10.3
2009-09-09 06:49:10 51°13.859 2°52.902 244.1 11.9 243 10.3
2009-09-09 06:49:14 51°13.852 2°52.884 243.1 12 240 10.3
2009-09-09 06:49:19 51°13.845 2°52.86 244.8 11.8 243 10.5
2009-09-09 06:49:25 51°13.835 2°52.833 244.3 11.9 240 10.5
2009-09-09 06:49:29 51°13.829 2°52.814 244 11.9 244 10.4
2009-09-09 06:49:34 51°13.821 2°52.791 244.4 11.9 241 10.3
2009-09-09 06:49:39 51°13.815 2°52.767 245.9 11.8 246 10.3
2009-09-09 06:49:44 51°13.805 2°52.745 244.8 12 239 10.8
2009-09-09 06:49:49 51°13.799 2°52.721 244.3 11.8 246 10.9
2009-09-09 06:49:54 51°13.791 2°52.698 245.3 11.9 239 10.5
2009-09-09 06:49:59 51°13.783 2°52.674 243.8 11.9 244 10.6
2009-09-09 06:50:04 51°13.776 2°52.65 246 12 243 10.6
2009-09-09 06:50:09 51°13.767 2°52.628 244.8 12 242 10.5
2009-09-09 06:50:14 51°13.761 2°52.604 245.5 11.9 245 10.6
2009-09-09 06:50:19 51°13.753 2°52.58 246.2 12 242 10.4
2009-09-09 06:50:25 51°13.745 2°52.552 245.5 11.9 245 10.3
2009-09-09 06:50:29 51°13.738 2°52.533 245.1 12.1 241 10.6
2009-09-09 06:50:34 51°13.731 2°52.509 246 12 246 10.4
2009-09-09 06:50:39 51°13.723 2°52.486 247.1 12.1 239 10.6
2009-09-09 06:50:45 51°13.715 2°52.457 246.1 11.9 246 10.2
2009-09-09 06:50:49 51°13.708 2°52.439 245 12 241 10.3
2009-09-09 06:50:54 51°13.701 2°52.415 245.4 11.9 243 10.7
2009-09-09 06:50:58 51°13.695 2°52.396 245.7 11.8 241 10.2
2009-09-09 06:51:04 51°13.685 2°52.369 244.2 11.9 243 10.4
2009-09-09 06:51:09 51°13.678 2°52.345 245.8 11.9 243 10.4
2009-09-09 06:51:14 51°13.669 2°52.323 244.5 12 241 10.7
2009-09-09 06:51:18 51°13.665 2°52.303 246.2 11.9 246 10.6
2009-09-09 06:51:24 51°13.655 2°52.276 245 12 241 10.5
2009-09-09 06:51:29 51°13.647 2°52.252 244.6 11.9 244 10.7
2009-09-09 06:51:34 51°13.64 2°52.228 246.1 11.9 243 10.8
2009-09-09 06:51:39 51°13.632 2°52.205 245.3 11.9 243 10.7
2009-09-09 06:51:45 51°13.623 2°52.176 245.4 12 243 10.8
2009-09-09 06:51:49 51°13.617 2°52.158 246.1 11.9 244 11
2009-09-09 06:51:54 51°13.61 2°52.134 246.1 12 241 10.5
2009-09-09 06:51:59 51°13.602 2°52.112 244.2 11.9 243 10.8
2009-09-09 06:52:05 51°13.592 2°52.084 246.5 11.8 239 10.9
2009-09-09 06:52:09 51°13.585 2°52.067 240.8 11.9 234 10.8
2009-09-09 06:52:14 51°13.575 2°52.045 237.3 11.8 236 10.7
2009-09-09 06:52:19 51°13.565 2°52.025 234.6 11.9 229 10.9
2009-09-09 06:52:24 51°13.554 2°52.005 231.8 11.8 231 10.9
2009-09-09 06:52:29 51°13.544 2°51.985 231.3 11.9 229 10.7
2009-09-09 06:52:34 51°13.532 2°51.966 228.9 11.9 227 10.8
2009-09-09 06:52:39 51°13.522 2°51.946 229.9 11.8 228 10.7
2009-09-09 06:52:45 51°13.508 2°51.924 227.3 11.9 226 10.8
2009-09-09 06:52:49 51°13.5 2°51.907 228.4 11.9 228 10.8
2009-09-09 06:52:54 51°13.488 2°51.889 227.3 11.9 224 10.7
2009-09-09 06:52:58 51°13.478 2°51.874 225.4 12.2 223 10.6
2009-09-09 06:53:04 51°13.463 2°51.852 224.4 12.1 227 10.6
2009-09-09 06:53:09 51°13.451 2°51.833 224.7 12 220 10.7
2009-09-09 06:53:14 51°13.439 2°51.816 222.8 12.1 225 10.7
2009-09-09 06:53:18 51°13.429 2°51.801 222.6 12 220 10.6
2009-09-09 06:53:24 51°13.414 2°51.781 221.5 12 223 10.7
2009-09-09 06:53:29 51°13.402 2°51.762 223.4 11.9 221 10.5
2009-09-09 06:53:34 51°13.388 2°51.746 220.3 12.1 219 10.7
2009-09-09 06:53:39 51°13.377 2°51.727 221.2 11.9 222 10.4
2009-09-09 06:53:45 51°13.36 2°51.71 219 12 214 10.6
2009-09-09 06:53:49 51°13.351 2°51.695 217.8 11.9 220 10.5
2009-09-09 06:53:54 51°13.336 2°51.682 215.8 11.9 211 10.5
2009-09-09 06:53:59 51°13.323 2°51.667 212.7 11.9 215 10.4
2009-09-09 06:54:04 51°13.308 2°51.655 210.5 11.8 207 10.3
2009-09-09 06:54:09 51°13.294 2°51.642 208.1 11.7 208 10.3
2009-09-09 06:54:14 51°13.279 2°51.633 206.2 11.7 202 10.2
2009-09-09 06:54:19 51°13.264 2°51.624 199.7 11.7 199 10.2
2009-09-09 06:54:24 51°13.248 2°51.618 195.9 11.5 194 10.2
2009-09-09 06:54:29 51°13.233 2°51.611 192.9 11.6 194 10
2009-09-09 06:54:34 51°13.217 2°51.606 190.5 11.4 191 10
2009-09-09 06:54:39 51°13.203 2°51.602 188.9 10.5 190 9.9
2009-09-09 06:54:44 51°13.189 2°51.599 186.6 9.8 187 9.9
2009-09-09 06:54:49 51°13.176 2°51.596 184.7 9.2 188 9.9
2009-09-09 06:54:54 51°13.164 2°51.594 183.2 8.7 187 9.9
2009-09-09 06:54:59 51°13.152 2°51.592 182.7 8 185 9.8
2009-09-09 06:55:05 51°13.14 2°51.591 180.5 7.6 184 9.8
2009-09-09 06:55:09 51°13.132 2°51.59 178.6 7.1 183 9.7
2009-09-09 06:55:14 51°13.122 2°51.589 176.5 6.7 182 9.8
2009-09-09 06:55:19 51°13.113 2°51.589 174.6 6.4 180 9.9
2009-09-09 06:55:25 51°13.103 2°51.589 172.9 6.1 180 9.8
2009-09-09 06:55:29 51°13.097 2°51.589 171.2 5.8 179 9.8
2009-09-09 06:55:34 51°13.089 2°51.59 170.3 5.6 179 9.8
2009-09-09 06:55:39 51°13.081 2°51.59 169.8 5.5 180 9.7
2009-09-09 06:55:44 51°13.074 2°51.59 169.8 5.4 181 9.8
2009-09-09 06:55:49 51°13.066 2°51.589 170.6 5.3 183 9.8
2009-09-09 06:55:54 51°13.059 2°51.588 172.8 5.1 186 9.8
2009-09-09 06:55:59 51°13.052 2°51.587 176.6 5 188 9.8
2009-09-09 06:56:04 51°13.046 2°51.585 179.5 4.8 190 9.9
2009-09-09 06:56:09 51°13.04 2°51.582 182.9 4.6 193 9.8
2009-09-09 06:56:14 51°13.033 2°51.58 184.7 4.5 195 9.7
2009-09-09 06:56:19 51°13.028 2°51.577 187.6 4.5 199 9.7
2009-09-09 06:56:24 51°13.022 2°51.573 191 4.4 201 9.8
2009-09-09 06:56:29 51°13.016 2°51.569 194 4.4 204 9.8
2009-09-09 06:56:34 51°13.011 2°51.565 197.9 4.3 206 9.8
2009-09-09 06:56:39 51°13.006 2°51.561 200.2 4.2 208 9.8
2009-09-09 06:56:45 51°13 2°51.556 203.5 4.1 210 9.8
2009-09-09 06:56:49 51°12.996 2°51.552 206.2 4.1 212 9.8
2009-09-09 06:56:54 51°12.991 2°51.547 209 4.1 214 9.7
2009-09-09 06:56:58 51°12.987 2°51.543 212 4 215 9.7
2009-09-09 06:57:04 51°12.982 2°51.536 213.7 4.1 218 9.6
2009-09-09 06:57:09 51°12.978 2°51.531 215.8 4.1 219 9.7
2009-09-09 06:57:14 51°12.973 2°51.525 218 4 220 9.8
2009-09-09 06:57:19 51°12.969 2°51.519 219.8 3.9 221 9.8
2009-09-09 06:57:25 51°12.964 2°51.513 220.6 3.8 222 9.8
2009-09-09 06:57:29 51°12.961 2°51.508 221.5 3.8 222 9.8
2009-09-09 06:57:34 51°12.957 2°51.502 222.8 3.7 224 9.8
2009-09-09 06:57:39 51°12.954 2°51.497 223.7 3.8 223 10
2009-09-09 06:57:44 51°12.95 2°51.491 224.9 3.8 224 10.1
2009-09-09 06:57:49 51°12.946 2°51.485 225.9 3.8 223 10
2009-09-09 06:57:54 51°12.942 2°51.479 226.7 3.7 224 9.8
2009-09-09 06:57:59 51°12.939 2°51.473 227.8 3.6 226 9.6
2009-09-09 06:58:04 51°12.935 2°51.468 228.6 3.6 226 9.7
2009-09-09 06:58:09 51°12.932 2°51.461 229.3 3.6 227 9.6
2009-09-09 06:58:14 51°12.928 2°51.456 230 3.6 225 9.7
2009-09-09 06:58:19 51°12.925 2°51.45 230.7 3.5 229 9.6
2009-09-09 06:58:24 51°12.922 2°51.444 231.6 3.5 228 9.6
2009-09-09 06:58:29 51°12.919 2°51.438 232.4 3.6 230 9.6
2009-09-09 06:58:34 51°12.915 2°51.432 233.5 3.7 229 9.6
2009-09-09 06:58:38 51°12.913 2°51.427 234.3 3.6 231 9.6
2009-09-09 06:58:44 51°12.909 2°51.42 235.3 3.6 230 9.8
2009-09-09 06:58:49 51°12.906 2°51.414 236 3.6 229 9.6
2009-09-09 06:58:54 51°12.903 2°51.408 236.1 3.5 231 9.6
2009-09-09 06:58:59 51°12.9 2°51.402 236.2 3.5 230 9.7
2009-09-09 06:59:05 51°12.896 2°51.395 235.8 3.5 229 9.7
2009-09-09 06:59:09 51°12.893 2°51.391 235.1 3.4 229 9.6
2009-09-09 06:59:14 51°12.89 2°51.385 234 3.4 230 9.5
2009-09-09 06:59:19 51°12.887 2°51.38 233.1 3.4 229 9.4
2009-09-09 06:59:25 51°12.883 2°51.373 232.9 3.5 228 9.6
2009-09-09 06:59:29 51°12.881 2°51.368 232.8 3.5 229 9.8
2009-09-09 06:59:34 51°12.878 2°51.363 233.1 3.4 228 9.7
2009-09-09 06:59:39 51°12.875 2°51.357 233.6 3.4 228 9.9
2009-09-09 06:59:45 51°12.871 2°51.35 234.1 3.4 230 9.8
2009-09-09 06:59:49 51°12.869 2°51.346 234.9 3.3 231 9.9
2009-09-09 06:59:54 51°12.866 2°51.34 235.7 3.2 232 9.7
2009-09-09 06:59:59 51°12.863 2°51.335 236.7 3.3 231 9.6
2009-09-09 07:00:05 51°12.859 2°51.328 237.9 3.3 233 9.6
2009-09-09 07:00:09 51°12.857 2°51.323 239.5 3.3 232 9.6
2009-09-09 07:00:14 51°12.854 2°51.317 241 3.2 236 9.7
2009-09-09 07:00:18 51°12.852 2°51.313 242.8 3.3 235 9.7
2009-09-09 07:00:24 51°12.848 2°51.306 244.6 3.3 237 9.6
2009-09-09 07:00:29 51°12.846 2°51.299 246.4 3.2 236 9.6
2009-09-09 07:00:34 51°12.844 2°51.293 247.7 3.3 240 9.4
2009-09-09 07:00:38 51°12.842 2°51.288 249.5 3.4 240 9.5
2009-09-09 07:00:44 51°12.839 2°51.28 251.5 3.5 243 9.4
2009-09-09 07:00:49 51°12.837 2°51.273 253.7 3.5 244 9.6
2009-09-09 07:00:54 51°12.835 2°51.266 256 3.6 245 9.9
2009-09-09 07:00:59 51°12.833 2°51.258 258.5 3.7 247 9.9
2009-09-09 07:01:05 51°12.831 2°51.249 260.7 3.8 248 9.6
2009-09-09 07:01:09 51°12.829 2°51.242 262.6 3.9 250 9.6
2009-09-09 07:01:14 51°12.827 2°51.234 264.3 3.9 249 9.6
2009-09-09 07:01:19 51°12.825 2°51.225 265.5 3.9 250 9.6
2009-09-09 07:01:24 51°12.824 2°51.217 266.3 4 250 9.8
2009-09-09 07:01:29 51°12.822 2°51.209 267 4 253 9.8
2009-09-09 07:01:34 51°12.821 2°51.2 267.6 4.1 254 9.7
2009-09-09 07:01:39 51°12.819 2°51.192 268.3 4.1 256 9.7
2009-09-09 07:01:45 51°12.817 2°51.181 269 4.2 256 9.8
2009-09-09 07:01:49 51°12.816 2°51.174 269.9 4.2 257 10
2009-09-09 07:01:54 51°12.815 2°51.165 270.9 4.2 256 9.4
2009-09-09 07:01:59 51°12.813 2°51.156 271.7 4.2 256 9.3
2009-09-09 07:02:05 51°12.812 2°51.145 271.7 4.2 256 9.5
2009-09-09 07:02:09 51°12.811 2°51.138 271.9 4.2 257 9.6
2009-09-09 07:02:14 51°12.809 2°51.128 272.2 4.2 258 9.5
2009-09-09 07:02:19 51°12.808 2°51.119 272.9 4.3 256 9.4
2009-09-09 07:02:24 51°12.807 2°51.11 273.5 4.3 258 9.9
2009-09-09 07:02:29 51°12.806 2°51.101 274.5 4.3 258 9.9
2009-09-09 07:02:34 51°12.804 2°51.091 275.5 4.3 259 9.8
2009-09-09 07:02:39 51°12.804 2°51.082 276.5 4.1 261 9.3
2009-09-09 07:02:44 51°12.803 2°51.073 276.6 4.1 260 9.5
2009-09-09 07:02:49 51°12.802 2°51.065 276.9 4.1 262 9.8
2009-09-09 07:02:54 51°12.801 2°51.056 277.4 4.1 261 9.6
2009-09-09 07:02:59 51°12.8 2°51.046 278.1 4.2 262 9.6
2009-09-09 07:03:04 51°12.799 2°51.037 278.5 4.2 261 9.5
2009-09-09 07:03:09 51°12.798 2°51.028 278.6 4.2 262 9.5
2009-09-09 07:03:14 51°12.797 2°51.019 278.3 4.2 261 9.9
2009-09-09 07:03:19 51°12.796 2°51.01 278 4.2 262 9.8
2009-09-09 07:03:24 51°12.795 2°51 277.6 4.2 260 9.6
2009-09-09 07:03:29 51°12.794 2°50.991 277 4.2 263 9.8
2009-09-09 07:03:34 51°12.793 2°50.982 276.2 4.3 259 9.5
2009-09-09 07:03:39 51°12.792 2°50.973 275.2 4.2 258 9.2
2009-09-09 07:03:45 51°12.79 2°50.962 273.1 4.2 254 9.6
2009-09-09 07:03:49 51°12.789 2°50.955 270.8 4.2 254 9.5
2009-09-09 07:03:54 51°12.788 2°50.946 268.6 4.3 253 9.8
2009-09-09 07:03:59 51°12.786 2°50.936 266.5 4.4 254 9.7
2009-09-09 07:04:05 51°12.784 2°50.925 265.2 4.4 252 9.5
2009-09-09 07:04:09 51°12.782 2°50.918 264.2 4.4 251 9.5
2009-09-09 07:04:14 51°12.78 2°50.909 262.9 4.4 251 9.8
2009-09-09 07:04:18 51°12.778 2°50.901 261.4 4.4 249 9.6
2009-09-09 07:04:24 51°12.776 2°50.891 260.5 4.4 251 9.5
2009-09-09 07:04:29 51°12.774 2°50.882 260.4 4.4 250 9.6
2009-09-09 07:04:34 51°12.771 2°50.873 260.4 4.4 249 9.7
2009-09-09 07:04:39 51°12.769 2°50.864 260.6 4.3 249 9.7
2009-09-09 07:04:45 51°12.766 2°50.854 260.7 4.2 250 9.7
2009-09-09 07:04:49 51°12.764 2°50.847 259.9 4.2 246 9.9
2009-09-09 07:04:54 51°12.762 2°50.838 259 4.3 246 9.6
2009-09-09 07:04:59 51°12.76 2°50.83 257.8 4.2 247 9.6
2009-09-09 07:05:04 51°12.758 2°50.821 257.2 4.2 247 9.5
2009-09-09 07:05:09 51°12.755 2°50.813 256.7 4.2 245 9.6
2009-09-09 07:05:14 51°12.753 2°50.805 256.3 4.2 247 9.8
2009-09-09 07:05:19 51°12.751 2°50.796 256.2 4.1 246 9.8
2009-09-09 07:05:25 51°12.748 2°50.787 255.4 4.1 245 9.8
2009-09-09 07:05:29 51°12.746 2°50.78 254.7 4.1 244 9.8
2009-09-09 07:05:34 51°12.743 2°50.772 253.8 4.1 244 9.7
2009-09-09 07:05:39 51°12.741 2°50.764 253.4 4.1 244 9.6
2009-09-09 07:05:44 51°12.738 2°50.756 252.6 4.1 243 9.7
2009-09-09 07:05:49 51°12.736 2°50.748 251.5 4.1 242 9.7
2009-09-09 07:05:54 51°12.733 2°50.74 250.8 4.1 243 9.6
2009-09-09 07:05:59 51°12.73 2°50.732 249.8 4.1 241 9.4
2009-09-09 07:06:04 51°12.727 2°50.724 248.8 4.1 240 9.4
2009-09-09 07:06:09 51°12.724 2°50.717 247.6 4.1 238 9.4
2009-09-09 07:06:14 51°12.721 2°50.709 245.9 4.1 238 9.3
2009-09-09 07:06:19 51°12.718 2°50.702 244.7 4.1 237 9.3
2009-09-09 07:06:25 51°12.714 2°50.693 243.8 4.1 236 9.4
2009-09-09 07:06:29 51°12.712 2°50.687 242.7 4 235 9.4
2009-09-09 07:06:34 51°12.709 2°50.68 241.8 4 235 9.5
2009-09-09 07:06:39 51°12.705 2°50.673 240.9 4.1 234 9.4
2009-09-09 07:06:45 51°12.702 2°50.664 240.2 4.1 236 9.4
2009-09-09 07:06:49 51°12.699 2°50.658 239.8 4.1 234 9.6
2009-09-09 07:06:54 51°12.696 2°50.651 239.7 4.1 234 9.4
2009-09-09 07:06:59 51°12.692 2°50.644 239.4 4.1 234 9.6
2009-09-09 07:07:04 51°12.689 2°50.637 239.3 4.1 235 9.7
2009-09-09 07:07:09 51°12.686 2°50.629 239 4.1 234 9.7
2009-09-09 07:07:14 51°12.682 2°50.622 239.1 4.1 234 9.7
2009-09-09 07:07:19 51°12.679 2°50.615 239 4 232 9.9
2009-09-09 07:07:24 51°12.676 2°50.608 238.9 4 232 9.8
2009-09-09 07:07:29 51°12.672 2°50.601 238.3 3.9 231 9.8
2009-09-09 07:07:34 51°12.669 2°50.594 237.6 3.9 232 9.7
2009-09-09 07:07:39 51°12.666 2°50.587 237.4 3.9 234 9.6
2009-09-09 07:07:44 51°12.662 2°50.58 237.6 4 232 9.5
2009-09-09 07:07:49 51°12.659 2°50.573 237.5 4 234 9.4
2009-09-09 07:07:54 51°12.655 2°50.566 237.9 4 233 9.5
2009-09-09 07:07:59 51°12.652 2°50.559 238.1 4 234 9.5
2009-09-09 07:08:04 51°12.649 2°50.552 238.5 4 232 9.5
2009-09-09 07:08:09 51°12.645 2°50.544 238.7 4.1 233 9.1
2009-09-09 07:08:14 51°12.642 2°50.537 238.6 4.1 233 9.1
2009-09-09 07:08:19 51°12.638 2°50.53 238.8 4.2 231 9.2
2009-09-09 07:08:25 51°12.634 2°50.521 239.1 4.1 234 9.4
2009-09-09 07:08:29 51°12.631 2°50.516 239.6 4.1 234 9.6
2009-09-09 07:08:34 51°12.627 2°50.508 239.8 4.1 234 9.5
2009-09-09 07:08:38 51°12.625 2°50.502 240.1 4 235 9.5
2009-09-09 07:08:44 51°12.621 2°50.494 240.3 4.1 234 9.4
2009-09-09 07:08:49 51°12.618 2°50.486 240.4 4.1 237 9.3
2009-09-09 07:08:54 51°12.614 2°50.479 240.9 4.1 235 9.2
2009-09-09 07:08:59 51°12.611 2°50.472 240.5 4 237 9.5
2009-09-09 07:09:05 51°12.607 2°50.463 240.6 4.1 234 9.4
2009-09-09 07:09:09 51°12.604 2°50.457 240.5 4.1 237 9.3
2009-09-09 07:09:14 51°12.601 2°50.45 240.5 4.1 234 9.1
2009-09-09 07:09:19 51°12.598 2°50.443 240.2 4.1 236 9.3
2009-09-09 07:09:24 51°12.594 2°50.436 239.7 4 235 9.4
2009-09-09 07:09:29 51°12.591 2°50.428 239.6 4 236 9.5
2009-09-09 07:09:34 51°12.588 2°50.421 239.6 4 235 9.2
2009-09-09 07:09:39 51°12.585 2°50.414 239 4.1 233 9.4
2009-09-09 07:09:44 51°12.582 2°50.406 238.4 4.1 234 9.6
2009-09-09 07:09:49 51°12.578 2°50.399 238.3 4.1 233 9.4
2009-09-09 07:09:54 51°12.575 2°50.392 238.2 4.1 234 9.4
2009-09-09 07:09:59 51°12.571 2°50.384 238.3 4.1 234 9.4
2009-09-09 07:10:05 51°12.567 2°50.375 238.6 4.2 235 9.3
2009-09-09 07:10:09 51°12.564 2°50.37 239.3 4.1 235 9.2
2009-09-09 07:10:14 51°12.561 2°50.363 239.6 4.1 234 9.2
2009-09-09 07:10:18 51°12.559 2°50.357 239.8 4 236 9.3
2009-09-09 07:10:24 51°12.555 2°50.348 239.9 4 235 9.5
2009-09-09 07:10:29 51°12.552 2°50.34 240.2 4.1 235 9.5
2009-09-09 07:10:34 51°12.548 2°50.333 240.1 4.1 233 9.5
2009-09-09 07:10:39 51°12.545 2°50.326 240.3 4.1 235 9.4
2009-09-09 07:10:45 51°12.541 2°50.317 240.2 4 234 9.3
2009-09-09 07:10:49 51°12.539 2°50.311 240.2 4.1 235 9.4
2009-09-09 07:10:54 51°12.535 2°50.304 240.2 4.1 234 9.4
2009-09-09 07:10:59 51°12.532 2°50.296 240.2 4.1 236 9.2
2009-09-09 07:11:05 51°12.528 2°50.287 240.3 4.1 234 9.1
2009-09-09 07:11:09 51°12.525 2°50.282 240.1 4.1 235 9.3
2009-09-09 07:11:14 51°12.522 2°50.274 240 4 236 9.2
2009-09-09 07:11:19 51°12.519 2°50.267 240.1 4 235 9.2
2009-09-09 07:11:25 51°12.515 2°50.258 240.3 4 235 9.2
2009-09-09 07:11:29 51°12.513 2°50.252 240.7 4.1 235 9.2
2009-09-09 07:11:34 51°12.51 2°50.245 240.8 4.1 235 9.3
2009-09-09 07:11:39 51°12.506 2°50.238 241.2 4 236 9.2
2009-09-09 07:11:44 51°12.503 2°50.231 241.8 4 236 9.3
2009-09-09 07:11:49 51°12.5 2°50.223 241.6 4 235 9.1
2009-09-09 07:11:54 51°12.497 2°50.216 241.6 3.9 236 9.1
2009-09-09 07:11:59 51°12.494 2°50.209 241.2 3.9 235 9.1
2009-09-09 07:12:04 51°12.491 2°50.202 241.2 3.9 236 9.2
2009-09-09 07:12:09 51°12.488 2°50.195 241.4 3.9 235 9.4
2009-09-09 07:12:14 51°12.484 2°50.188 241.4 3.9 235 9.3
2009-09-09 07:12:19 51°12.481 2°50.181 241.2 3.9 233 9.3
2009-09-09 07:12:24 51°12.478 2°50.174 241 3.9 234 9.4
2009-09-09 07:12:29 51°12.475 2°50.167 240.5 3.9 234 9.2
2009-09-09 07:12:34 51°12.472 2°50.159 240.3 4 236 9.1
2009-09-09 07:12:39 51°12.469 2°50.152 240.3 3.9 236 9.2
2009-09-09 07:12:44 51°12.465 2°50.145 240.8 3.9 236 9.1
2009-09-09 07:12:49 51°12.462 2°50.138 241 3.9 235 9.2
2009-09-09 07:12:54 51°12.459 2°50.132 241.2 3.9 234 9.4
2009-09-09 07:12:59 51°12.456 2°50.124 241.5 3.9 235 9.3
2009-09-09 07:13:05 51°12.453 2°50.116 241.2 3.9 235 9.1
2009-09-09 07:13:09 51°12.45 2°50.11 241.4 3.8 235 9.2
2009-09-09 07:13:14 51°12.447 2°50.103 241.8 3.8 236 9.1
2009-09-09 07:13:19 51°12.444 2°50.096 242.2 3.9 234 9.1
2009-09-09 07:13:25 51°12.44 2°50.088 242.9 3.9 236 9.2
2009-09-09 07:13:29 51°12.438 2°50.082 243.7 3.9 236 9.2
2009-09-09 07:13:34 51°12.435 2°50.075 244 3.8 235 9.3
2009-09-09 07:13:39 51°12.432 2°50.068 244.2 3.8 237 9.2
2009-09-09 07:13:45 51°12.429 2°50.06 244.1 3.8 235 9.5
2009-09-09 07:13:49 51°12.426 2°50.055 244.1 3.7 235 9.6
2009-09-09 07:13:54 51°12.424 2°50.048 244.3 3.7 235 9.5
2009-09-09 07:13:59 51°12.421 2°50.041 244.3 3.8 235 9.5
2009-09-09 07:14:04 51°12.418 2°50.034 244.3 3.8 235 9.3
2009-09-09 07:14:09 51°12.415 2°50.027 244.4 3.8 236 9.2
2009-09-09 07:14:14 51°12.412 2°50.019 244.5 3.8 237 9
2009-09-09 07:14:18 51°12.41 2°50.014 245.1 3.8 238 8.9
2009-09-09 07:14:24 51°12.406 2°50.005 245.4 3.9 237 9.1
2009-09-09 07:14:29 51°12.404 2°49.998 245.8 3.9 239 9.1
2009-09-09 07:14:34 51°12.401 2°49.991 246 3.9 238 9.1
2009-09-09 07:14:39 51°12.398 2°49.983 246 3.9 239 9.1
2009-09-09 07:14:45 51°12.395 2°49.975 246.3 3.8 240 9.1
2009-09-09 07:14:49 51°12.393 2°49.969 246.6 3.9 239 9.4
2009-09-09 07:14:54 51°12.39 2°49.962 246.9 3.9 238 9.3
2009-09-09 07:14:59 51°12.387 2°49.955 247 3.8 237 9.3
2009-09-09 07:15:04 51°12.384 2°49.948 246.7 3.8 236 9.4
2009-09-09 07:15:09 51°12.381 2°49.941 245.9 3.8 236 9.4
2009-09-09 07:15:14 51°12.379 2°49.934 245.4 3.9 236 9.3
2009-09-09 07:15:19 51°12.376 2°49.926 245.4 3.9 236 9
2009-09-09 07:15:25 51°12.372 2°49.918 245.5 3.9 237 9.1
2009-09-09 07:15:29 51°12.37 2°49.912 245.8 3.9 239 9
2009-09-09 07:15:34 51°12.367 2°49.905 246 3.9 237 8.9
2009-09-09 07:15:39 51°12.364 2°49.898 245.6 3.8 237 8.9
2009-09-09 07:15:45 51°12.361 2°49.89 245.6 3.9 238 9.1
2009-09-09 07:15:49 51°12.358 2°49.884 245.3 3.8 236 9.2
2009-09-09 07:15:54 51°12.356 2°49.877 245.1 3.7 238 9.1
2009-09-09 07:15:59 51°12.353 2°49.87 245.3 3.7 239 8.9
2009-09-09 07:16:05 51°12.349 2°49.861 245.4 3.8 237 9
2009-09-09 07:16:09 51°12.347 2°49.855 245.4 3.9 237 9.2
2009-09-09 07:16:14 51°12.344 2°49.848 245.9 3.9 237 9.3
2009-09-09 07:16:19 51°12.341 2°49.84 246 3.9 238 9.2
2009-09-09 07:16:25 51°12.338 2°49.832 246.3 3.9 237 9.2
2009-09-09 07:16:29 51°12.336 2°49.826 246.4 3.8 239 9.3
2009-09-09 07:16:34 51°12.333 2°49.819 246.9 3.9 238 9.2
2009-09-09 07:16:39 51°12.33 2°49.811 247.2 3.8 242 8.9
2009-09-09 07:16:45 51°12.327 2°49.802 247.5 3.9 240 9
2009-09-09 07:16:50 51°12.324 2°49.795 247.8 3.9 241 9.1
2009-09-09 07:16:54 51°12.322 2°49.79 247.9 3.8 239 9.2
2009-09-09 07:16:59 51°12.319 2°49.782 247.1 3.8 237 9.3
2009-09-09 07:17:05 51°12.316 2°49.774 246.4 3.8 237 9.6
2009-09-09 07:17:09 51°12.314 2°49.768 245.7 3.8 236 9.3
2009-09-09 07:17:14 51°12.311 2°49.761 245.3 3.8 238 9.1
2009-09-09 07:17:19 51°12.308 2°49.754 245.2 3.8 236 9.1
2009-09-09 07:17:25 51°12.305 2°49.745 245.1 3.7 237 9.1
2009-09-09 07:17:29 51°12.303 2°49.739 244.9 3.7 239 9.1
2009-09-09 07:17:34 51°12.3 2°49.732 245.3 3.7 238 9.3
2009-09-09 07:17:39 51°12.297 2°49.725 245.6 3.7 238 9.3
2009-09-09 07:17:45 51°12.294 2°49.716 245.8 3.8 238 9.4
2009-09-09 07:17:49 51°12.291 2°49.71 245.7 3.8 237 9.1
2009-09-09 07:17:54 51°12.289 2°49.703 245.7 3.7 236 9.1
2009-09-09 07:17:59 51°12.286 2°49.696 245.8 3.7 237 9.2
2009-09-09 07:18:05 51°12.283 2°49.688 245.7 3.7 238 9.1
2009-09-09 07:18:09 51°12.281 2°49.682 245.4 3.8 237 9.1
2009-09-09 07:18:14 51°12.278 2°49.675 245.4 3.9 238 9.2
2009-09-09 07:18:18 51°12.276 2°49.669 245.4 3.8 238 9
2009-09-09 07:18:25 51°12.271 2°49.66 245.3 3.8 238 9
2009-09-09 07:18:29 51°12.269 2°49.654 245 3.8 239 9
2009-09-09 07:18:34 51°12.267 2°49.647 244.9 3.8 239 8.9
2009-09-09 07:18:39 51°12.264 2°49.64 245.2 3.8 239 9
2009-09-09 07:18:45 51°12.261 2°49.631 245.4 3.8 239 8.8
2009-09-09 07:18:50 51°12.258 2°49.624 245.3 3.9 238 8.8
2009-09-09 07:18:54 51°12.255 2°49.618 245.4 3.9 239 8.8
2009-09-09 07:18:59 51°12.253 2°49.611 246 3.9 241 8.9
2009-09-09 07:19:05 51°12.25 2°49.602 246.4 3.9 240 8.8
2009-09-09 07:19:09 51°12.247 2°49.597 246.8 3.9 241 9
2009-09-09 07:19:14 51°12.244 2°49.59 246.7 3.9 240 8.9
2009-09-09 07:19:19 51°12.242 2°49.583 247.2 3.9 241 9.2
2009-09-09 07:19:25 51°12.238 2°49.574 246.3 3.8 236 9.4
2009-09-09 07:19:29 51°12.236 2°49.568 245.4 3.8 238 9.3
2009-09-09 07:19:34 51°12.233 2°49.561 244.6 3.8 236 9.2
2009-09-09 07:19:39 51°12.23 2°49.553 244.1 3.8 239 9
2009-09-09 07:19:45 51°12.227 2°49.545 244.3 3.9 236 8.8
2009-09-09 07:19:49 51°12.225 2°49.539 244.4 3.9 239 8.7
2009-09-09 07:19:54 51°12.222 2°49.532 244.3 3.9 238 8.7
2009-09-09 07:19:58 51°12.219 2°49.527 244.2 3.9 241 8.7
2009-09-09 07:20:04 51°12.216 2°49.518 244.4 3.9 238 9
2009-09-09 07:20:09 51°12.213 2°49.511 244.5 3.8 237 9.2
2009-09-09 07:20:14 51°12.21 2°49.504 244.2 3.8 236 9.1
2009-09-09 07:20:18 51°12.208 2°49.498 243.7 3.8 236 9
2009-09-09 07:20:25 51°12.204 2°49.488 243.8 3.8 236 9
2009-09-09 07:20:29 51°12.202 2°49.482 243.9 3.8 236 9
2009-09-09 07:20:34 51°12.199 2°49.475 244 3.8 238 9.1
2009-09-09 07:20:39 51°12.196 2°49.468 244 3.8 237 8.8
2009-09-09 07:20:45 51°12.193 2°49.459 244.1 3.8 238 8.8
2009-09-09 07:20:49 51°12.191 2°49.454 244.4 3.8 239 9
2009-09-09 07:20:54 51°12.188 2°49.446 244.8 3.8 239 8.9
2009-09-09 07:20:59 51°12.185 2°49.439 245.4 3.8 240 8.9
2009-09-09 07:21:04 51°12.182 2°49.432 245.6 3.8 239 8.7
2009-09-09 07:21:09 51°12.18 2°49.425 245.7 3.8 240 8.6
2009-09-09 07:21:14 51°12.177 2°49.418 245.3 3.8 240 8.8
2009-09-09 07:21:19 51°12.174 2°49.411 245.2 3.8 240 9
2009-09-09 07:21:24 51°12.171 2°49.404 245.2 3.8 238 9.1
2009-09-09 07:21:29 51°12.168 2°49.396 245.1 3.9 239 9.1
2009-09-09 07:21:34 51°12.165 2°49.389 245.2 3.9 237 9.1
2009-09-09 07:21:39 51°12.162 2°49.383 245.4 3.8 237 9.2
2009-09-09 07:21:44 51°12.16 2°49.375 245.4 3.8 236 9.1
2009-09-09 07:21:49 51°12.157 2°49.368 244.8 3.7 237 9.2
2009-09-09 07:21:54 51°12.154 2°49.361 244.4 3.7 235 9
2009-09-09 07:21:59 51°12.151 2°49.354 243.8 3.8 237 8.9
2009-09-09 07:22:05 51°12.148 2°49.346 243.6 3.8 239 8.7
2009-09-09 07:22:09 51°12.145 2°49.34 244 3.9 237 8.6
2009-09-09 07:22:14 51°12.142 2°49.333 244.1 3.9 238 8.6
2009-09-09 07:22:19 51°12.139 2°49.326 244.3 3.9 238 8.7
2009-09-09 07:22:25 51°12.136 2°49.317 244.5 3.8 239 8.8
2009-09-09 07:22:29 51°12.134 2°49.311 244.5 3.8 236 8.9
2009-09-09 07:22:34 51°12.13 2°49.305 244 3.8 235 9.1
2009-09-09 07:22:39 51°12.127 2°49.298 243.8 3.8 236 9
2009-09-09 07:22:45 51°12.124 2°49.289 243.8 3.9 237 8.9
2009-09-09 07:22:49 51°12.121 2°49.283 243.8 3.9 238 8.7
2009-09-09 07:22:54 51°12.119 2°49.276 244.4 3.9 238 8.7
2009-09-09 07:22:59 51°12.116 2°49.269 244.7 3.9 238 8.8
2009-09-09 07:23:04 51°12.113 2°49.262 244.9 3.8 239 8.8
2009-09-09 07:23:09 51°12.111 2°49.254 245.3 3.8 239 9
2009-09-09 07:23:14 51°12.108 2°49.248 245.6 3.8 239 9.1
2009-09-09 07:23:19 51°12.105 2°49.24 245.9 3.8 236 8.9
2009-09-09 07:23:24 51°12.102 2°49.233 245.7 3.8 236 9
2009-09-09 07:23:29 51°12.099 2°49.226 245.6 3.9 238 9
2009-09-09 07:23:34 51°12.097 2°49.219 245.7 3.9 237 8.9
2009-09-09 07:23:39 51°12.094 2°49.212 245.9 3.9 239 8.9
2009-09-09 07:23:45 51°12.09 2°49.203 246.1 3.9 238 8.8
2009-09-09 07:23:49 51°12.088 2°49.197 246 3.8 239 8.9
2009-09-09 07:23:54 51°12.085 2°49.19 246.1 3.8 237 9.1
2009-09-09 07:23:58 51°12.083 2°49.185 245.6 3.7 238 9.1
2009-09-09 07:24:04 51°12.08 2°49.176 245.9 3.7 237 9.1
2009-09-09 07:24:09 51°12.077 2°49.169 245.7 3.8 238 8.8
2009-09-09 07:24:14 51°12.074 2°49.161 245.5 3.9 239 8.7
2009-09-09 07:24:19 51°12.071 2°49.154 245.6 3.9 239 8.7
2009-09-09 07:24:25 51°12.067 2°49.146 246.1 3.9 238 8.8
2009-09-09 07:24:29 51°12.065 2°49.14 246.3 3.9 239 8.9
2009-09-09 07:24:34 51°12.062 2°49.133 246.6 3.9 239 8.9
2009-09-09 07:24:39 51°12.059 2°49.126 246.8 3.9 238 9
2009-09-09 07:24:45 51°12.056 2°49.116 247.4 3.9 241 9
2009-09-09 07:24:49 51°12.054 2°49.111 247.9 3.9 238 9.2
2009-09-09 07:24:54 51°12.051 2°49.103 248 3.8 239 9
2009-09-09 07:24:59 51°12.049 2°49.096 247.6 3.8 238 8.9
2009-09-09 07:25:05 51°12.045 2°49.088 247.4 3.8 239 8.9
2009-09-09 07:25:09 51°12.043 2°49.082 247.2 3.8 240 8.8
2009-09-09 07:25:14 51°12.04 2°49.074 246.9 3.8 237 8.9
2009-09-09 07:25:19 51°12.038 2°49.067 246.8 3.8 237 8.9
2009-09-09 07:25:25 51°12.034 2°49.059 246.3 3.8 236 8.9
2009-09-09 07:25:29 51°12.032 2°49.053 245.8 3.8 236 8.7
2009-09-09 07:25:34 51°12.03 2°49.046 245.3 3.7 236 8.9
2009-09-09 07:25:38 51°12.027 2°49.04 244.6 3.8 237 8.8
2009-09-09 07:25:44 51°12.024 2°49.031 244.3 3.9 237 8.7
2009-09-09 07:25:50 51°12.02 2°49.023 244.6 3.9 238 8.6
2009-09-09 07:25:54 51°12.018 2°49.017 245.4 3.9 239 8.8
2009-09-09 07:25:59 51°12.015 2°49.01 245.6 3.8 238 9
2009-09-09 07:26:05 51°12.012 2°49.002 246 3.7 238 8.7
2009-09-09 07:26:09 51°12.01 2°48.996 245.4 3.7 237 8.8
2009-09-09 07:26:14 51°12.007 2°48.989 245.2 3.7 239 8.7
2009-09-09 07:26:19 51°12.004 2°48.982 245.3 3.8 236 8.9
2009-09-09 07:26:25 51°12.001 2°48.973 245.4 3.8 237 9.1
2009-09-09 07:26:29 51°11.999 2°48.968 245.1 3.9 238 9
2009-09-09 07:26:34 51°11.996 2°48.961 244.9 3.8 238 8.7
2009-09-09 07:26:39 51°11.993 2°48.954 245 3.8 237 8.9
2009-09-09 07:26:45 51°11.99 2°48.945 245 3.7 236 9.1
2009-09-09 07:26:49 51°11.988 2°48.939 244.8 3.7 240 9
2009-09-09 07:26:54 51°11.985 2°48.932 245.1 3.8 237 8.9
2009-09-09 07:26:59 51°11.982 2°48.925 244.7 3.8 241 8.7
2009-09-09 07:27:05 51°11.979 2°48.916 244.7 3.8 240 8.4
2009-09-09 07:27:09 51°11.977 2°48.911 244.7 3.8 242 8.5
2009-09-09 07:27:14 51°11.974 2°48.904 244.7 3.8 239 8.5
2009-09-09 07:27:18 51°11.972 2°48.898 244.7 3.9 241 8.6
2009-09-09 07:27:25 51°11.968 2°48.888 244.6 3.9 237 8.5
2009-09-09 07:27:29 51°11.965 2°48.882 244.1 3.9 238 8.6
2009-09-09 07:27:34 51°11.963 2°48.875 243.8 3.9 237 8.5
2009-09-09 07:27:38 51°11.961 2°48.869 243.7 3.8 242 8.5
2009-09-09 07:27:44 51°11.957 2°48.86 244.1 3.9 238 8.8
2009-09-09 07:27:50 51°11.954 2°48.851 244.1 3.9 239 8.9
2009-09-09 07:27:54 51°11.951 2°48.846 244.3 3.9 235 9.1
2009-09-09 07:27:59 51°11.948 2°48.839 244.6 3.8 236 8.9
2009-09-09 07:28:05 51°11.945 2°48.831 244.1 3.9 233 8.9
2009-09-09 07:28:09 51°11.942 2°48.825 243.7 3.8 236 8.8
2009-09-09 07:28:14 51°11.94 2°48.817 243.9 3.9 237 8.8
2009-09-09 07:28:19 51°11.937 2°48.81 244.2 3.9 234 8.7
2009-09-09 07:28:25 51°11.933 2°48.801 244 3.9 239 8.5
2009-09-09 07:28:29 51°11.931 2°48.796 244.1 3.9 236 8.4
2009-09-09 07:28:34 51°11.928 2°48.789 244.4 3.9 238 8.2
2009-09-09 07:28:39 51°11.925 2°48.782 243.6 3.8 239 8.2
2009-09-09 07:28:45 51°11.921 2°48.773 244 3.8 236 8.2
2009-09-09 07:28:49 51°11.919 2°48.768 243.3 3.9 237 8.5
2009-09-09 07:28:54 51°11.916 2°48.761 243.8 3.8 238 8.4
2009-09-09 07:28:59 51°11.913 2°48.753 244.4 3.8 237 8.5
2009-09-09 07:29:05 51°11.91 2°48.745 244.9 3.9 239 8.8
2009-09-09 07:29:09 51°11.907 2°48.739 245.8 3.9 238 8.7
2009-09-09 07:29:14 51°11.905 2°48.732 246.4 3.8 239 8.6
2009-09-09 07:29:19 51°11.902 2°48.724 246.9 3.8 238 8.4
2009-09-09 07:29:25 51°11.899 2°48.716 247.5 3.8 244 8.5
2009-09-09 07:29:29 51°11.897 2°48.71 248.3 3.9 240 8.7
2009-09-09 07:29:34 51°11.894 2°48.702 249.2 3.9 241 8.7
2009-09-09 07:29:39 51°11.891 2°48.695 249.6 3.9 239 8.6
2009-09-09 07:29:45 51°11.888 2°48.686 249.4 3.8 242 8.7
2009-09-09 07:29:49 51°11.886 2°48.681 249.8 3.8 241 8.7
2009-09-09 07:29:54 51°11.884 2°48.673 249.9 3.8 239 8.9
2009-09-09 07:29:59 51°11.882 2°48.666 250.5 3.8 240 8.9
2009-09-09 07:30:04 51°11.879 2°48.659 250 3.7 240 8.7
2009-09-09 07:30:09 51°11.877 2°48.651 250 3.7 244 8.5
2009-09-09 07:30:14 51°11.874 2°48.644 250.4 3.8 243 8.5
2009-09-09 07:30:19 51°11.871 2°48.636 251 3.8 244 8.3
2009-09-09 07:30:24 51°11.869 2°48.629 251.6 3.8 243 8.3
2009-09-09 07:30:29 51°11.866 2°48.622 252.3 3.7 245 8.4
2009-09-09 07:30:34 51°11.864 2°48.615 253.3 3.7 244 8.6
2009-09-09 07:30:39 51°11.862 2°48.608 253.6 3.7 244 8.8
2009-09-09 07:30:45 51°11.859 2°48.598 254.4 3.7 245 8.5
2009-09-09 07:30:49 51°11.857 2°48.593 255.7 3.7 246 8.4
2009-09-09 07:30:54 51°11.855 2°48.585 256.9 3.7 248 8.4
2009-09-09 07:30:59 51°11.853 2°48.578 258.4 3.6 249 8.4
2009-09-09 07:31:05 51°11.851 2°48.569 259.7 3.6 248 8.3
2009-09-09 07:31:09 51°11.849 2°48.563 260.5 3.6 249 8.6
2009-09-09 07:31:14 51°11.847 2°48.556 261.4 3.6 246 8.5
2009-09-09 07:31:19 51°11.846 2°48.549 261.7 3.5 248 8.7
2009-09-09 07:31:25 51°11.843 2°48.54 262.5 3.5 247 8.9
2009-09-09 07:31:29 51°11.842 2°48.535 262.8 3.5 250 8.7
2009-09-09 07:31:34 51°11.841 2°48.528 263.8 3.5 251 8.5
2009-09-09 07:31:39 51°11.839 2°48.52 264.3 3.5 252 8.4
2009-09-09 07:31:45 51°11.837 2°48.511 265.4 3.5 250 8.3
2009-09-09 07:31:49 51°11.836 2°48.506 266.9 3.5 252 8.5
2009-09-09 07:31:54 51°11.834 2°48.498 267.4 3.5 253 8.8
2009-09-09 07:31:59 51°11.833 2°48.491 268.3 3.5 252 8.9
2009-09-09 07:32:05 51°11.831 2°48.483 269.1 3.5 253 8.8
2009-09-09 07:32:10 51°11.83 2°48.476 269.9 3.4 253 8.6
2009-09-09 07:32:14 51°11.829 2°48.47 270.8 3.3 255 8.5
2009-09-09 07:32:19 51°11.827 2°48.463 271.4 3.3 253 8.8
2009-09-09 07:32:24 51°11.826 2°48.456 271.8 3.4 255 8.9
2009-09-09 07:32:29 51°11.825 2°48.448 272.5 3.4 256 8.7
2009-09-09 07:32:34 51°11.824 2°48.441 273.9 3.5 256 8.8
2009-09-09 07:32:39 51°11.822 2°48.434 274.4 3.5 255 8.9
2009-09-09 07:32:44 51°11.821 2°48.427 275.3 3.4 255 8.9
2009-09-09 07:32:49 51°11.82 2°48.42 275.9 3.4 257 9
2009-09-09 07:32:54 51°11.819 2°48.412 276.4 3.4 257 8.5
2009-09-09 07:32:59 51°11.818 2°48.405 276.8 3.3 257 8.3
2009-09-09 07:33:04 51°11.817 2°48.398 277.2 3.3 258 8.4
2009-09-09 07:33:09 51°11.816 2°48.39 277.6 3.4 258 8.5
2009-09-09 07:33:14 51°11.815 2°48.383 278.3 3.4 259 8.3
2009-09-09 07:33:19 51°11.814 2°48.376 279.2 3.3 259 8
2009-09-09 07:33:25 51°11.813 2°48.368 280.1 3.2 259 8.4
2009-09-09 07:33:29 51°11.812 2°48.362 280.4 3.3 258 8.7
2009-09-09 07:33:34 51°11.811 2°48.355 281.4 3.3 261 8.6
2009-09-09 07:33:39 51°11.811 2°48.348 282.9 3.3 261 8.6
2009-09-09 07:33:45 51°11.81 2°48.339 284.2 3.3 263 8.7
2009-09-09 07:33:49 51°11.809 2°48.333 285.3 3.4 262 8.7
2009-09-09 07:33:54 51°11.809 2°48.326 286.6 3.3 265 8.6
2009-09-09 07:33:59 51°11.808 2°48.319 287.6 3.3 262 8.6
2009-09-09 07:34:05 51°11.808 2°48.311 288.5 3 264 8.4
2009-09-09 07:34:09 51°11.807 2°48.306 289 2.9 261 8.2
2009-09-09 07:34:14 51°11.807 2°48.3 289.4 2.7 261 8.2
2009-09-09 07:34:19 51°11.806 2°48.294 289.5 2.7 260 8.5
2009-09-09 07:34:24 51°11.805 2°48.288 289.7 2.6 261 8.4
2009-09-09 07:34:29 51°11.805 2°48.282 290.3 2.6 259 8.6
2009-09-09 07:34:34 51°11.804 2°48.276 290.6 2.6 260 8.7
2009-09-09 07:34:39 51°11.803 2°48.271 291.1 2.5 258 8.5
2009-09-09 07:34:44 51°11.802 2°48.266 291.5 2.4 258 8.6
2009-09-09 07:34:49 51°11.802 2°48.261 291.9 2.3 256 8.5
2009-09-09 07:34:54 51°11.801 2°48.256 292.5 2.3 256 8.8
2009-09-09 07:34:59 51°11.8 2°48.251 293.3 2.3 255 8.7
2009-09-09 07:35:04 51°11.799 2°48.246 294 2.2 254 8.4
2009-09-09 07:35:09 51°11.798 2°48.242 294.5 2.2 255 8.4
2009-09-09 07:35:14 51°11.797 2°48.237 295.3 2.2 254 8.6
2009-09-09 07:35:19 51°11.797 2°48.232 296.1 2.1 253 8.4
2009-09-09 07:35:24 51°11.796 2°48.228 296.9 2 251 8.5
2009-09-09 07:35:29 51°11.795 2°48.224 297 2 250 8.3
2009-09-09 07:35:34 51°11.794 2°48.219 297.1 2 247 8.2
2009-09-09 07:35:39 51°11.793 2°48.216 297.1 1.8 248 8.5
2009-09-09 07:35:45 51°11.791 2°48.211 297.5 1.8 247 8.4
2009-09-09 07:35:49 51°11.79 2°48.208 298.1 1.9 243 8.2
2009-09-09 07:35:54 51°11.789 2°48.204 298.6 1.9 245 8.3
2009-09-09 07:35:59 51°11.788 2°48.2 298.8 1.9 252 8.6
2009-09-09 07:36:05 51°11.787 2°48.194 299.6 2.1 255 8.3
2009-09-09 07:36:09 51°11.787 2°48.19 301 2.1 259 8.4
2009-09-09 07:36:14 51°11.786 2°48.185 303 2.2 263 8.4
2009-09-09 07:36:19 51°11.786 2°48.18 305.3 2.4 267 8.3
2009-09-09 07:36:25 51°11.786 2°48.174 308.5 2.4 274 8.4
2009-09-09 07:36:29 51°11.787 2°48.169 311.8 2.5 275 8.4
2009-09-09 07:36:34 51°11.787 2°48.164 315.2 2.5 282 8.4
2009-09-09 07:36:39 51°11.788 2°48.158 319.3 2.7 284 8.6
2009-09-09 07:36:44 51°11.789 2°48.153 323.3 2.5 289 8.6
2009-09-09 07:36:49 51°11.791 2°48.147 326.9 2.7 294 8.4
2009-09-09 07:36:54 51°11.793 2°48.142 330.4 2.7 305 8.4
2009-09-09 07:36:59 51°11.795 2°48.137 334.7 2.9 308 8.6
2009-09-09 07:37:05 51°11.799 2°48.132 339.7 2.8 316 8.5
2009-09-09 07:37:09 51°11.801 2°48.129 345 2.8 321 8.6
2009-09-09 07:37:14 51°11.804 2°48.126 350.1 2.8 331 8.5
2009-09-09 07:37:18 51°11.807 2°48.124 355.8 2.8 338 8.5
2009-09-09 07:37:24 51°11.812 2°48.122 1.9 2.8 350 8.6
2009-09-09 07:37:29 51°11.816 2°48.122 8.6 2.9 359 8.5
2009-09-09 07:37:34 51°11.82 2°48.123 16.1 2.9 12 8.6
2009-09-09 07:37:38 51°11.822 2°48.124 24.2 3 23 8.4
2009-09-09 07:37:44 51°11.827 2°48.128 32.6 3.3 34 8.6
2009-09-09 07:37:49 51°11.831 2°48.134 40.1 3.6 43 8.5
2009-09-09 07:37:54 51°11.834 2°48.14 44.9 4 48 8.8
2009-09-09 07:37:58 51°11.838 2°48.146 49.2 4.6 53 9.1
2009-09-09 07:38:04 51°11.843 2°48.156 51.1 5 51 8.7
2009-09-09 07:38:09 51°11.848 2°48.165 50.1 5.7 50 9.2
2009-09-09 07:38:14 51°11.853 2°48.176 49.7 6.3 50 8.9
2009-09-09 07:38:19 51°11.86 2°48.187 49.4 7 47 8.8
2009-09-09 07:38:25 51°11.868 2°48.202 49.3 7.3 49 8.4
2009-09-09 07:38:29 51°11.873 2°48.212 48.8 7.7 49 8.9
2009-09-09 07:38:34 51°11.88 2°48.226 49.4 8 50 8.7
2009-09-09 07:38:39 51°11.889 2°48.239 49.3 8.3 47 8.8
2009-09-09 07:38:45 51°11.898 2°48.256 48.6 8.5 48 8.7
2009-09-09 07:38:49 51°11.904 2°48.267 48.6 8.6 47 8.6
2009-09-09 07:38:54 51°11.913 2°48.281 48.9 8.7 48 8.8
2009-09-09 07:38:59 51°11.921 2°48.295 48.1 8.9 45 8.7
2009-09-09 07:39:04 51°11.93 2°48.309 47.6 9.1 45 8.8
2009-09-09 07:39:09 51°11.939 2°48.324 47.6 9 46 8.5
2009-09-09 07:39:14 51°11.947 2°48.338 47.2 9 47 8.8
2009-09-09 07:39:19 51°11.956 2°48.352 48 9.1 46 9
2009-09-09 07:39:25 51°11.967 2°48.37 48.1 9.1 47 8.6
2009-09-09 07:39:30 51°11.975 2°48.385 48.2 9.2 46 8.9
2009-09-09 07:39:34 51°11.982 2°48.397 49.2 9.2 50 8.9
2009-09-09 07:39:39 51°11.991 2°48.412 50.2 9.3 48 9.1
2009-09-09 07:39:44 51°11.999 2°48.428 50 9.3 48 8.8
2009-09-09 07:39:49 51°12.008 2°48.443 49.7 9.3 50 8.9
2009-09-09 07:39:54 51°12.016 2°48.459 50.7 9.3 48 9.1
2009-09-09 07:39:59 51°12.025 2°48.474 50.9 9.3 50 9.1
2009-09-09 07:40:05 51°12.034 2°48.493 51.5 9.2 51 9.1
2009-09-09 07:40:09 51°12.041 2°48.506 52 9.3 50 9.4
2009-09-09 07:40:14 51°12.049 2°48.522 51.3 9.3 50 9.2
2009-09-09 07:40:19 51°12.058 2°48.537 51.2 9.2 49 8.8
2009-09-09 07:40:25 51°12.067 2°48.556 52.1 9.3 50 9.1
2009-09-09 07:40:29 51°12.074 2°48.568 51.6 9.3 49 9.2
2009-09-09 07:40:34 51°12.082 2°48.584 51 9.2 51 8.9
2009-09-09 07:40:39 51°12.09 2°48.6 51.5 9.2 50 9.1
2009-09-09 07:40:45 51°12.1 2°48.619 51.6 9.3 49 9
2009-09-09 07:40:49 51°12.107 2°48.632 51.5 9.3 51 8.8
2009-09-09 07:40:54 51°12.115 2°48.647 51.6 9.3 52 9.4
2009-09-09 07:40:59 51°12.123 2°48.663 52.1 9.3 51 9.5
2009-09-09 07:41:05 51°12.133 2°48.682 51.9 9.3 50 9.3
2009-09-09 07:41:09 51°12.14 2°48.695 51.6 9.4 50 9.2
2009-09-09 07:41:14 51°12.148 2°48.711 51.6 9.4 50 9.4
2009-09-09 07:41:19 51°12.156 2°48.727 51.5 9.3 51 9.2
2009-09-09 07:41:25 51°12.166 2°48.746 51.6 9.3 50 9.6
2009-09-09 07:41:29 51°12.173 2°48.758 51.5 9.3 51 9.4
2009-09-09 07:41:34 51°12.181 2°48.774 51.6 9.4 49 9.3
2009-09-09 07:41:38 51°12.188 2°48.787 51.3 9.5 49 9.4
2009-09-09 07:41:44 51°12.198 2°48.806 51.2 9.5 49 9.4
2009-09-09 07:41:50 51°12.208 2°48.825 51.2 9.4 49 9.4
2009-09-09 07:41:54 51°12.215 2°48.837 51 9.4 51 9.6
2009-09-09 07:41:59 51°12.222 2°48.854 51.3 8.9 54 8.9
2009-09-09 07:42:05 51°12.231 2°48.873 52.9 8.9 55 10
2009-09-09 07:42:09 51°12.237 2°48.885 52.3 8.7 52 9.6
2009-09-09 07:42:14 51°12.245 2°48.9 51.6 8.6 51 9.4
2009-09-09 07:42:19 51°12.252 2°48.915 51.6 8.7 50 9.8
2009-09-09 07:42:25 51°12.262 2°48.932 50.9 8.8 49 9.5
2009-09-09 07:42:29 51°12.268 2°48.945 50.9 8.9 50 9.4
2009-09-09 07:42:34 51°12.276 2°48.96 51.5 9 50 9.6
2009-09-09 07:42:39 51°12.285 2°48.975 51.9 9.1 50 9.2
2009-09-09 07:42:45 51°12.294 2°48.994 52 9.2 50 9.8
2009-09-09 07:42:49 51°12.301 2°49.007 51.6 9.3 52 10.1
2009-09-09 07:42:54 51°12.309 2°49.022 51.6 9.2 50 9.6
2009-09-09 07:42:59 51°12.317 2°49.038 52 9.2 50 9.6
2009-09-09 07:43:05 51°12.327 2°49.057 51.6 9.3 50 9.5
2009-09-09 07:43:09 51°12.333 2°49.069 51.4 9.3 50 9.7
2009-09-09 07:43:14 51°12.341 2°49.085 51.3 9.3 50 10
2009-09-09 07:43:19 51°12.35 2°49.101 51.3 9.4 50 9.8
2009-09-09 07:43:25 51°12.36 2°49.12 51.3 9.4 50 9.9
2009-09-09 07:43:29 51°12.366 2°49.132 51.3 9.2 51 9.4
2009-09-09 07:43:34 51°12.374 2°49.148 52 9.3 50 10.1
2009-09-09 07:43:38 51°12.381 2°49.161 51.6 9.2 50 9.6
2009-09-09 07:43:44 51°12.39 2°49.18 51.4 9.2 51 9.9
2009-09-09 07:43:49 51°12.399 2°49.195 51.6 9.4 50 10.1
2009-09-09 07:43:54 51°12.407 2°49.211 51.6 9.3 51 9.8
2009-09-09 07:43:58 51°12.413 2°49.224 51.5 9.2 51 9.8
2009-09-09 07:44:04 51°12.423 2°49.243 51.5 9.3 50 10.2
2009-09-09 07:44:09 51°12.432 2°49.259 51.2 9.3 50 9.9
2009-09-09 07:44:14 51°12.44 2°49.275 52 9.3 51 9.8
2009-09-09 07:44:19 51°12.448 2°49.29 51.6 9.2 49 9.8
2009-09-09 07:44:25 51°12.458 2°49.309 50.8 9.3 50 10.1
2009-09-09 07:44:29 51°12.465 2°49.321 50.7 9.3 50 10.1
2009-09-09 07:44:34 51°12.473 2°49.338 51.3 9.2 51 9.7
2009-09-09 07:44:39 51°12.481 2°49.353 51.4 9.1 50 9.9
2009-09-09 07:44:45 51°12.491 2°49.372 51.6 9.2 50 10.3
2009-09-09 07:44:49 51°12.498 2°49.384 50.9 9.3 50 10
2009-09-09 07:44:54 51°12.505 2°49.4 51.1 9.3 51 10.1
2009-09-09 07:44:59 51°12.513 2°49.416 51.6 9.2 51 9.8
2009-09-09 07:45:05 51°12.523 2°49.434 51.6 9.2 49 9.9
2009-09-09 07:45:09 51°12.53 2°49.447 50.9 9.2 50 10.2
2009-09-09 07:45:14 51°12.538 2°49.463 50.6 9.2 49 10.2
2009-09-09 07:45:19 51°12.546 2°49.478 50.2 9.2 50 10.4
2009-09-09 07:45:25 51°12.556 2°49.496 50.2 9.2 49 9.9
2009-09-09 07:45:30 51°12.564 2°49.512 50.4 9.2 50 10.3
2009-09-09 07:45:34 51°12.571 2°49.525 50.7 9.2 50 10.4
2009-09-09 07:45:39 51°12.58 2°49.54 50.5 9.2 49 10
2009-09-09 07:45:45 51°12.59 2°49.559 51.5 9.2 51 10.5
2009-09-09 07:45:49 51°12.596 2°49.571 51.5 9.2 50 10.1
2009-09-09 07:45:54 51°12.604 2°49.587 51.7 9.2 52 10.6
2009-09-09 07:45:59 51°12.612 2°49.603 52.1 9.1 51 10.4
2009-09-09 07:46:04 51°12.62 2°49.619 52 9.2 51 10.6
2009-09-09 07:46:09 51°12.628 2°49.635 51.6 9.1 51 10.2
2009-09-09 07:46:14 51°12.636 2°49.65 51.7 9.2 52 10.6
2009-09-09 07:46:19 51°12.643 2°49.666 52.3 9.2 53 11.2
2009-09-09 07:46:24 51°12.651 2°49.682 51.9 8.9 51 10.1
2009-09-09 07:46:29 51°12.658 2°49.697 51.6 8.9 51 10.5
2009-09-09 07:46:34 51°12.667 2°49.712 50.9 9 50 10.5
2009-09-09 07:46:39 51°12.675 2°49.727 50.9 9 50 10
2009-09-09 07:46:45 51°12.684 2°49.746 51.2 9 51 10.6
2009-09-09 07:46:49 51°12.69 2°49.758 51.4 9.1 50 10.7
2009-09-09 07:46:55 51°12.7 2°49.776 51 9 50 10.3
2009-09-09 07:46:59 51°12.707 2°49.789 51.1 9.1 50 10.3
2009-09-09 07:47:05 51°12.717 2°49.807 51 9.2 49 10.5
2009-09-09 07:47:09 51°12.723 2°49.82 51.1 9.2 51 10.5
2009-09-09 07:47:14 51°12.731 2°49.836 51.6 9.2 50 10.4
2009-09-09 07:47:19 51°12.74 2°49.851 51.2 9.1 50 10.1
2009-09-09 07:47:25 51°12.749 2°49.869 51.4 9.1 51 10.3
2009-09-09 07:47:29 51°12.755 2°49.882 51.7 9.1 52 10.3
2009-09-09 07:47:34 51°12.763 2°49.897 51.6 9.1 50 10.7
2009-09-09 07:47:39 51°12.771 2°49.913 51.3 9.1 51 10.6
2009-09-09 07:47:45 51°12.781 2°49.932 51.6 9.2 50 10.5
2009-09-09 07:47:49 51°12.787 2°49.944 51.4 9.2 50 10.5
2009-09-09 07:47:54 51°12.795 2°49.961 51.5 9.1 52 10.3
2009-09-09 07:47:59 51°12.803 2°49.976 51.5 9 50 10.3
2009-09-09 07:48:05 51°12.813 2°49.994 51 9.1 50 10.5
2009-09-09 07:48:09 51°12.819 2°50.006 50.6 9.1 51 10.7
2009-09-09 07:48:14 51°12.827 2°50.022 50.9 9.1 51 10.4
2009-09-09 07:48:19 51°12.835 2°50.037 50.8 9.1 50 10.8
2009-09-09 07:48:24 51°12.843 2°50.053 50.9 9.1 50 10.9
2009-09-09 07:48:29 51°12.851 2°50.068 51.1 9 49 10.7
2009-09-09 07:48:34 51°12.858 2°50.084 51.3 8.9 52 10.7
2009-09-09 07:48:39 51°12.866 2°50.099 51.8 9.1 50 11
2009-09-09 07:48:45 51°12.876 2°50.117 51.3 9 50 10.5
2009-09-09 07:48:49 51°12.882 2°50.13 50.8 9 50 10.7
2009-09-09 07:48:54 51°12.89 2°50.145 50.9 9 50 10.6
2009-09-09 07:48:59 51°12.897 2°50.161 51.5 9.1 53 11.2
2009-09-09 07:49:05 51°12.907 2°50.179 51.6 9.1 50 11
2009-09-09 07:49:09 51°12.914 2°50.192 51.3 9.1 50 10.6
2009-09-09 07:49:14 51°12.922 2°50.207 50.2 9.3 48 10.7
2009-09-09 07:49:19 51°12.93 2°50.222 50.1 9.2 50 10.9
2009-09-09 07:49:25 51°12.94 2°50.241 50.9 9.1 51 10.5
2009-09-09 07:49:29 51°12.946 2°50.254 51.7 9.1 51 10.8
2009-09-09 07:49:34 51°12.954 2°50.269 51.5 9 52 11.1
2009-09-09 07:49:39 51°12.962 2°50.285 51.3 8.9 50 10.5
2009-09-09 07:49:45 51°12.971 2°50.303 51.1 9 51 10.7
2009-09-09 07:49:49 51°12.978 2°50.315 51.2 9.1 49 11
2009-09-09 07:49:54 51°12.986 2°50.331 51.2 9.1 51 10.9
2009-09-09 07:49:59 51°12.994 2°50.346 51.8 9.1 51 11
2009-09-09 07:50:05 51°13.004 2°50.365 51.4 9.1 50 10.7
2009-09-09 07:50:09 51°13.01 2°50.378 51.3 9.2 52 11.3
2009-09-09 07:50:14 51°13.018 2°50.394 51.8 9.1 53 10.9
2009-09-09 07:50:19 51°13.026 2°50.409 52.1 9.1 51 11
2009-09-09 07:50:24 51°13.034 2°50.425 51.2 9.1 52 11
2009-09-09 07:50:29 51°13.042 2°50.441 51.9 9 51 10.5
2009-09-09 07:50:34 51°13.05 2°50.456 51.4 9.1 52 11.1
2009-09-09 07:50:39 51°13.057 2°50.472 51.5 9 52 10.9
2009-09-09 07:50:44 51°13.065 2°50.487 51.8 8.9 51 10.9
2009-09-09 07:50:49 51°13.073 2°50.502 51.6 9 52 11
2009-09-09 07:50:54 51°13.08 2°50.518 52.2 9 51 11.1
2009-09-09 07:50:59 51°13.088 2°50.534 51.4 9 50 10.5
2009-09-09 07:51:04 51°13.096 2°50.549 51.4 9 52 10.7
2009-09-09 07:51:09 51°13.104 2°50.565 51.6 9.1 51 10.9
2009-09-09 07:51:14 51°13.112 2°50.58 51.3 9.1 52 11.6
2009-09-09 07:51:19 51°13.12 2°50.596 51.4 8.9 52 10.8
2009-09-09 07:51:25 51°13.129 2°50.614 51.7 8.9 51 10.7
2009-09-09 07:51:29 51°13.135 2°50.626 51.6 9.1 51 11
2009-09-09 07:51:34 51°13.143 2°50.642 51.7 9.1 50 11
2009-09-09 07:51:39 51°13.151 2°50.658 51.2 9 51 10.6
2009-09-09 07:51:45 51°13.161 2°50.676 50.9 9.1 52 11.5
2009-09-09 07:51:49 51°13.167 2°50.689 51.4 8.9 55 10.7
2009-09-09 07:51:54 51°13.174 2°50.705 53.8 8.9 54 10.7
2009-09-09 07:51:59 51°13.182 2°50.72 53.1 8.9 53 11.1
2009-09-09 07:52:05 51°13.19 2°50.741 53.9 9 57 11.4
2009-09-09 07:52:09 51°13.196 2°50.753 55.3 8.9 55 10.7
2009-09-09 07:52:14 51°13.202 2°50.77 55.5 8.9 56 10.8